Current | Forecast
Updated: 12:00 PM JST on September 20, 2017
Observed at Tanegashima Airport, Japan
Temperature 81°F
Humidity 79%
Dew Point 73°F
Wind West at 12 mph
Pressure 29.95 in (Steady)
Conditions Scattered Clouds
Visibility 6.2 miles
UV 9 out of 16
Clouds (FEW) : 1500 ft
Scattered Clouds (SCT) : 2500 ft
Yesterday's Maximum 82°F
Yesterday's Minimum 77°F approx.
Yesterday's Cooling Degree Days 15 approx.
Sunrise6:03 AM JST
Sunset6:15 PM JST
Moon Rise5:44 AM JST
Moon Set6:28 PM JST
Moon PhaseMoon Phase
Waning Crescent
Raw METARMETAR RJFG 200300Z 28010KT 250V310 9999 FEW015 SCT025 BKN/// 27/23 Q1014


Monday
. High: 73° F.
Tuesday
. High: 71° F.
Wednesday
. High: 70° F.
Thursday
. High: 71° F.
Friday
. High: 73° F.
Saturday
. High: 73° F.
Sunday
. High: 73° F.
Monday
. High: 73° F.

Units: English | Metric

Find the Weather for any City, State or Zipcode, or Country:

U.S. State List | Severe Weather | Tropical Storms | Ski Conditions
United States | Canada | Central America | South America | Asia | Europe | Australia | Africa | Islands

Weather Underground

© Copyright 2017
The Weather Company, LLC